Flight Track Log - Related Links

Times and Time Zones

All times are in EDT time to prevent confusion due to time zone crossing. See the QXE2418 flight status page for this flight to view local times or setup timezone preferences in your user account.


Time Position Orientation Groundspeed Altitude Reporting Facility
EDT Latitude Longitude Course Direction KTS MPH feet Rate Location/Type
Mon 01:08:19 PM 43.5861 -116.2919 295° West 169 194 4,800  Level Salt Lake Center
Mon 01:09:21 PM 43.6125 -116.3697 295° West 213 245 6,400 1,452 Climbing Salt Lake Center
Mon 01:10:23 PM 43.6414 -116.4586 294° West 252 290 7,800 1,463 Climbing Salt Lake Center
Mon 01:11:24 PM 43.6783 -116.5464 300° West 273 314 9,400 1,561 Climbing Salt Lake Center
Mon 01:12:26 PM 43.7225 -116.6511 300° West 282 325 11,000 1,306 Climbing Salt Lake Center
Mon 01:13:00 PM 43.6880 -116.6307 295° West  Level FlightAware Approximate
Mon 01:13:28 PM 43.7611 -116.7483 299° West 299 344 12,100  Level Salt Lake Center
Mon 01:14:29 PM 43.8086 -116.8658 299° West 311 358 13,300 1,122 Climbing Salt Lake Center
Mon 01:15:31 PM 43.8494 -116.9661 299° West 312 359 14,400 1,065 Climbing Salt Lake Center
Mon 01:16:33 PM 43.8889 -117.0658 299° West 308 354 15,500 1,073 Climbing Salt Lake Center
Mon 01:17:34 PM 43.9356 -117.1814 299° West 307 353 16,600 1,024 Climbing Salt Lake Center
Mon 01:18:36 PM 43.9753 -117.2808 299° West 306 352 17,600 871 Climbing Salt Lake Center
Mon 01:19:38 PM 44.0208 -117.3967 299° West 305 351 18,400 829 Climbing Salt Lake Center
Mon 01:20:39 PM 44.0575 -117.4919 298° West 294 338 19,300 829 Climbing Salt Lake Center
Mon 01:21:41 PM 44.0936 -117.5847 298° West 285 328 20,100 726 Climbing Salt Lake Center
Mon 01:22:43 PM 44.1386 -117.6944 300° West 292 336 20,800 585 Climbing Salt Lake Center
Mon 01:23:44 PM 44.1756 -117.7914 298° West 296 341 21,300 537 Climbing Salt Lake Center
Mon 01:24:46 PM 44.2208 -117.9078 299° West 305 351 21,900 341 Climbing Salt Lake Center
Mon 01:25:47 PM 44.2611 -118.0106 299° West 315 362 22,000 49 Climbing Salt Lake Center
Mon 01:26:49 PM 44.3092 -118.1358 298° West 326 375 22,000  Level Salt Lake Center
Mon 01:27:51 PM 44.3522 -118.2472 298° West 337 388 22,000  Level Salt Lake Center
Mon 01:28:52 PM 44.3956 -118.3608 298° West 342 394 22,000  Level Salt Lake Center
Mon 01:29:54 PM 44.4453 -118.4906 298° West 347 399 22,000  Level Salt Lake Center
Mon 01:30:56 PM 44.4906 -118.6089 298° West 346 398 22,000  Level Salt Lake Center
Mon 01:31:49 PM 44.5267 -118.7036 298° West 346 398 22,000  Level Seattle Center
Mon 01:32:50 PM 44.5714 -118.8219 298° West 346 398 22,000  Level Seattle Center
Mon 01:33:51 PM 44.6253 -118.9636 298° West 345 397 22,000  Level Seattle Center
Mon 01:34:53 PM 44.6694 -119.0833 297° West 346 398 22,000  Level Seattle Center
Mon 01:35:54 PM 44.7133 -119.2019 298° West 345 397 22,000  Level Seattle Center
Mon 01:36:55 PM 44.7572 -119.3217 297° West 345 397 22,000  Level Seattle Center
Mon 01:37:56 PM 44.8014 -119.4406 298° West 344 396 22,000  Level Seattle Center
Mon 01:38:57 PM 44.8453 -119.5611 297° West 346 398 22,000  Level Seattle Center
Mon 01:39:58 PM 44.8892 -119.6808 297° West 346 398 22,000  Level Seattle Center
Mon 01:40:59 PM 44.9322 -119.8000 297° West 344 396 22,000  Level Seattle Center
Mon 01:42:00 PM 44.9753 -119.9214 297° West 343 395 22,000  Level Seattle Center
Mon 01:43:01 PM 45.0244 -120.0542 298° West 346 398 22,000  Level Seattle Center
Mon 01:44:02 PM 45.0664 -120.1722 297° West 341 392 22,000  Level Seattle Center
Mon 01:45:03 PM 45.1081 -120.2892 297° West 336 387 22,000  Level Seattle Center
Mon 01:46:04 PM 45.1497 -120.4061 297° West 334 384 22,000 -246 Level Seattle Center
Mon 01:47:05 PM 45.1950 -120.5200 299° West 333 383 21,500 -689 Descending Seattle Center
Mon 01:48:06 PM 45.2469 -120.6361 302° West 344 396 20,600 -934 Descending Seattle Center
Mon 01:49:07 PM 45.2981 -120.7533 302° West 348 400 19,600 -787 Descending Seattle Center
Mon 01:50:08 PM 45.3447 -120.8706 300° West 345 397 19,000 -295 Descending Seattle Center
Mon 01:51:09 PM 45.3692 -121.0206 283° West 326 375 19,000  Level Seattle Center
Mon 01:52:11 PM 45.3931 -121.1447 285° West 325 374 19,000 -488 Level Seattle Center
Mon 01:53:12 PM 45.4181 -121.2675 286° West 325 374 18,000 -1,426 Descending Seattle Center
Mon 01:54:13 PM 45.4425 -121.3908 286° West 325 374 16,100 -2,100 Descending Seattle Center
Mon 01:54:32 PM 45.4511 -121.4375 285° West 321 369 15,200 -2,262 Descending Seattle Center
Mon 01:55:14 PM 45.4644 -121.5136 284° West 322 371 13,800 -1,967 Descending Seattle Center
Mon 01:55:33 PM 45.4725 -121.5583 284° West 316 364 13,200 -1,377 Descending Seattle Center
Mon 01:56:15 PM 45.4831 -121.6297 282° West 308 354 12,400 -1,200 Descending Seattle Center
Mon 01:56:33 PM 45.4867 -121.6758 276° West 287 330 12,000 -984 Descending Seattle Center
Mon 01:57:16 PM 45.4933 -121.7386 279° West 286 329 11,400 -1,082 Descending Seattle Center
Mon 01:57:34 PM 45.4978 -121.7917 277° West 280 322 10,900 -984 Descending Seattle Center
Mon 01:58:17 PM 45.5061 -121.8494 282° West 283 326 10,400 -885 Descending Seattle Center
Mon 01:58:35 PM 45.5125 -121.9028 280° West 286 329 10,000 -1,180 Descending Seattle Center
Mon 01:59:18 PM 45.5100 -121.9747 267° West 293 337 9,200 -984 Descending Seattle Center
Mon 01:59:36 PM 45.5050 -122.0142 260° West 287 330 9,000 -968 Descending Seattle Center
Mon 02:00:20 PM 45.5017 -122.0844 266° West 282 325 8,200 -1,100 Descending Seattle Center
Mon 02:00:36 PM 45.4986 -122.1186 263° West 259 298 7,900 -1,279 Descending Seattle Center
Mon 02:01:21 PM 45.4972 -122.1831 268° West 258 297 6,900 -1,475 Descending Seattle Center
Mon 02:01:37 PM 45.4914 -122.2111 253° West 226 260 6,400 -885 Descending Seattle Center
Mon 02:02:22 PM 45.4903 -122.2694 268° West 231 266 6,000 -885 Descending Seattle Center
Mon 02:02:38 PM 45.4847 -122.2942 252° West 177 204 5,500 -1,475 Descending Seattle Center
Mon 02:03:23 PM 45.4950 -122.3356 290° West 191 220 4,500 -1,574 Descending Seattle Center
Mon 02:03:39 PM 45.5028 -122.3608 294° West 184 212 3,900 -1,672 Descending Seattle Center
Mon 02:04:24 PM 45.5172 -122.3967 300° West 178 205 2,800 -1,475 Descending Seattle Center
Mon 02:04:40 PM 45.5261 -122.4222 296° West 175 201 2,400 -885 Descending Seattle Center
Mon 02:05:25 PM 45.5408 -122.4542 303° West 172 198 1,900 -787 Descending Seattle Center
Mon 02:05:41 PM 45.5469 -122.4722 296° West 142 163 1,600 -885 Descending Seattle Center
Mon 02:06:26 PM 45.5633 -122.5117 301° West 156 180 1,000 -700 Descending Seattle Center
Mon 02:06:41 PM 45.5647 -122.5172 290° West 130 150 900 -581 Descending Seattle Center
Mon 02:07:28 PM 45.5797 -122.5547 300° West 141 162 400 -638 Descending Seattle Center
Mon 02:09:00 PM 45.5833 -122.5833 282° West  Level FlightAware Approximate

Login

Don't have an account? Register now (free) for customized features, flight alerts, and more!